createdAt,value
2018-07-02T00:00:14.610Z,64.30
2018-07-02T00:05:12.000Z,63.90
2018-07-02T00:07:40.948Z,63.80
2018-07-02T00:10:10.412Z,63.80
2018-07-02T00:12:39.376Z,63.90
2018-07-02T00:15:08.444Z,63.90
2018-07-02T00:17:37.455Z,64.30
2018-07-02T00:20:07.155Z,64.40
2018-07-02T00:22:36.092Z,64.40
2018-07-02T00:25:05.137Z,64.60
2018-07-02T00:27:34.100Z,64.80
2018-07-02T00:30:03.081Z,65.60
2018-07-02T00:32:32.009Z,65.30
2018-07-02T00:35:00.924Z,65.50
2018-07-02T00:37:29.932Z,65.70
2018-07-02T00:39:58.952Z,65.10
2018-07-02T00:44:56.268Z,64.80
2018-07-02T00:47:25.296Z,64.70
2018-07-02T00:49:54.231Z,64.70
2018-07-02T00:52:23.180Z,64.70
2018-07-02T00:54:52.142Z,64.80
2018-07-02T00:57:21.040Z,64.60
2018-07-02T01:02:18.490Z,65.00
2018-07-02T01:04:47.320Z,64.80
2018-07-02T01:07:16.499Z,64.80
2018-07-02T01:09:45.437Z,65.20
2018-07-02T01:12:14.347Z,65.70
2018-07-02T01:14:43.283Z,65.80
2018-07-02T01:17:12.175Z,66.30
2018-07-02T01:19:41.166Z,66.70
2018-07-02T01:22:10.011Z,66.70
2018-07-02T01:24:39.008Z,66.50
2018-07-02T01:27:07.916Z,66.40
2018-07-02T01:29:36.825Z,66.60
2018-07-02T01:32:05.751Z,66.80
2018-07-02T01:34:34.752Z,66.80
2018-07-02T01:37:03.604Z,66.90
2018-07-02T01:39:32.521Z,67.30
2018-07-02T01:42:01.380Z,67.50
2018-07-02T01:44:30.348Z,67.50
2018-07-02T01:46:59.227Z,67.80
2018-07-02T01:49:28.176Z,67.70
2018-07-02T01:51:57.112Z,67.80
2018-07-02T01:54:26.795Z,67.90
2018-07-02T01:56:55.720Z,67.80
2018-07-02T01:59:24.604Z,67.20
2018-07-02T02:01:53.491Z,67.00
2018-07-02T02:04:22.369Z,67.30
2018-07-02T02:06:53.436Z,67.40
2018-07-02T02:09:22.294Z,67.80
2018-07-02T02:11:51.276Z,68.00
2018-07-02T02:14:20.164Z,67.80
2018-07-02T02:16:49.052Z,67.30
2018-07-02T02:19:18.055Z,67.30
2018-07-02T02:21:46.940Z,67.50
2018-07-02T02:24:15.792Z,67.60
2018-07-02T02:26:44.745Z,67.80
2018-07-02T02:29:13.631Z,67.70
2018-07-02T02:31:42.557Z,68.00
2018-07-02T02:34:11.368Z,67.90
2018-07-02T02:36:40.352Z,67.70
2018-07-02T02:39:10.268Z,69.20
2018-07-02T02:44:08.299Z,70.70
2018-07-02T02:46:37.549Z,70.90
2018-07-02T02:49:06.536Z,71.10
2018-07-02T02:54:03.936Z,70.50
2018-07-02T02:56:32.916Z,72.40
2018-07-02T02:59:01.752Z,72.50
2018-07-02T03:01:30.659Z,71.00
2018-07-02T03:03:59.542Z,69.60
2018-07-02T03:06:28.781Z,68.50
2018-07-02T03:11:26.220Z,68.20
2018-07-02T03:13:55.260Z,68.60
2018-07-02T03:16:24.176Z,69.20
2018-07-02T03:18:53.121Z,69.40
2018-07-02T03:21:21.988Z,69.40
2018-07-02T03:23:50.940Z,70.60
2018-07-02T03:26:19.806Z,71.90
2018-07-02T03:28:48.736Z,72.50
2018-07-02T03:31:17.629Z,72.10
2018-07-02T03:33:46.516Z,72.00
2018-07-02T03:38:43.904Z,72.50
2018-07-02T03:41:12.801Z,72.10
2018-07-02T03:43:41.733Z,72.20
2018-07-02T03:46:10.677Z,72.20
2018-07-02T03:48:39.544Z,72.10
2018-07-02T03:51:08.468Z,71.80
2018-07-02T03:53:37.286Z,71.10
2018-07-02T03:56:06.358Z,70.00
2018-07-02T03:58:35.289Z,67.80
2018-07-02T04:01:04.343Z,67.90
2018-07-02T04:03:33.229Z,68.10
2018-07-02T04:06:02.172Z,68.40
2018-07-02T04:08:31.063Z,69.30
2018-07-02T04:11:00.805Z,69.90
2018-07-02T04:13:29.636Z,70.60
2018-07-02T04:18:27.002Z,71.60
2018-07-02T04:20:55.924Z,71.60
2018-07-02T04:23:24.876Z,71.40
2018-07-02T04:25:53.880Z,71.00
2018-07-02T04:28:22.663Z,70.80
2018-07-02T04:30:51.625Z,70.70
2018-07-02T04:33:20.532Z,70.20
2018-07-02T04:35:49.460Z,69.60
2018-07-02T04:38:18.418Z,69.30
2018-07-02T04:40:47.316Z,69.10
2018-07-02T04:43:16.236Z,68.80
2018-07-02T04:45:45.178Z,68.40
2018-07-02T04:48:14.125Z,68.00
2018-07-02T04:50:43.021Z,67.10
2018-07-02T04:53:11.925Z,66.50
2018-07-02T04:55:40.816Z,66.30
2018-07-02T04:58:09.768Z,65.70
2018-07-02T05:03:07.200Z,64.20
2018-07-02T05:05:36.060Z,64.50
2018-07-02T05:10:33.384Z,64.40
2018-07-02T05:13:02.340Z,63.80
2018-07-02T05:15:31.316Z,64.10
2018-07-02T05:18:00.256Z,64.10
2018-07-02T05:20:29.120Z,63.70
2018-07-02T05:22:58.132Z,63.10
2018-07-02T05:25:26.956Z,61.90
2018-07-02T05:27:55.880Z,61.50
2018-07-02T05:30:24.760Z,62.20
2018-07-02T05:32:53.659Z,61.80
2018-07-02T05:35:22.513Z,61.60
2018-07-02T05:37:51.376Z,61.40
2018-07-02T05:40:20.224Z,60.70
2018-07-02T05:42:49.131Z,60.20
2018-07-02T05:45:18.044Z,59.00
2018-07-02T05:47:46.972Z,58.00
2018-07-02T05:50:15.809Z,55.90
2018-07-02T05:52:44.724Z,55.30
2018-07-02T05:55:13.619Z,54.80
2018-07-02T05:57:42.548Z,53.70
2018-07-02T06:00:11.948Z,53.80
2018-07-02T06:02:40.929Z,54.70
2018-07-02T06:05:09.764Z,54.60
2018-07-02T06:07:38.673Z,54.10
2018-07-02T06:10:07.500Z,53.80
2018-07-02T06:12:36.435Z,53.70
2018-07-02T06:15:05.308Z,53.30
2018-07-02T06:17:34.188Z,52.50
2018-07-02T06:20:03.106Z,50.80
2018-07-02T06:22:32.000Z,49.90
2018-07-02T06:25:00.833Z,49.50
2018-07-02T06:27:29.741Z,49.60
2018-07-02T06:29:58.623Z,49.30
2018-07-02T06:32:27.512Z,48.30
2018-07-02T06:34:56.384Z,48.40
2018-07-02T06:37:25.292Z,48.40
2018-07-02T06:39:54.277Z,48.80
2018-07-02T06:42:23.191Z,47.60
2018-07-02T06:44:52.034Z,48.20
2018-07-02T06:47:20.952Z,47.70
2018-07-02T06:49:50.796Z,47.80
2018-07-02T06:52:19.700Z,49.00
2018-07-02T06:54:48.588Z,47.70
2018-07-02T06:57:17.496Z,48.10
2018-07-02T06:59:47.245Z,47.30
2018-07-02T07:02:16.089Z,47.20
2018-07-02T07:04:45.000Z,47.10
2018-07-02T07:07:13.873Z,47.70
2018-07-02T07:09:42.728Z,45.70
2018-07-02T07:14:40.190Z,44.90
2018-07-02T07:17:09.137Z,44.80
2018-07-02T07:19:38.059Z,44.40
2018-07-02T07:22:06.959Z,44.10
2018-07-02T07:24:35.877Z,43.40
2018-07-02T07:27:04.764Z,44.50
2018-07-02T07:29:33.684Z,43.60
2018-07-02T07:32:02.557Z,42.40
2018-07-02T07:34:31.472Z,42.00
2018-07-02T07:37:00.328Z,43.00
2018-07-02T07:41:58.856Z,44.00
2018-07-02T07:44:27.824Z,43.40
2018-07-02T07:46:56.725Z,43.10
2018-07-02T07:49:25.629Z,43.80
2018-07-02T07:51:54.851Z,43.60
2018-07-02T07:54:23.736Z,44.30
2018-07-02T07:56:52.770Z,45.40
2018-07-02T07:59:21.664Z,44.50
2018-07-02T08:01:50.541Z,44.50
2018-07-02T08:04:19.408Z,44.40
2018-07-02T08:06:48.279Z,44.80
2018-07-02T08:09:17.112Z,44.40
2018-07-02T08:11:46.037Z,44.60
2018-07-02T08:14:14.904Z,44.10
2018-07-02T08:16:43.830Z,46.00
2018-07-02T08:19:12.784Z,45.10
2018-07-02T08:21:41.717Z,45.10
2018-07-02T08:24:10.596Z,45.70
2018-07-02T08:26:39.478Z,45.20
2018-07-02T08:29:14.716Z,44.90
2018-07-02T08:31:44.737Z,45.10
2018-07-02T08:34:14.568Z,46.10
2018-07-02T08:36:44.638Z,46.50
2018-07-02T08:39:13.932Z,46.10
2018-07-02T08:41:43.680Z,46.50
2018-07-02T08:46:43.071Z,45.00
2018-07-02T08:51:40.404Z,44.80
2018-07-02T08:54:10.295Z,45.10
2018-07-02T08:56:45.363Z,45.20
2018-07-02T08:59:16.764Z,44.00
2018-07-02T09:01:45.708Z,44.00
2018-07-02T09:04:16.743Z,44.00
2018-07-02T09:06:45.756Z,44.70
2018-07-02T09:09:14.717Z,44.60
2018-07-02T09:11:43.633Z,43.70
2018-07-02T09:14:12.432Z,45.00
2018-07-02T09:16:41.332Z,44.60
2018-07-02T09:19:10.369Z,45.10
2018-07-02T09:21:39.384Z,43.90
2018-07-02T09:24:08.328Z,44.30
2018-07-02T09:26:37.276Z,44.80
2018-07-02T09:29:06.128Z,44.00
2018-07-02T09:31:35.069Z,44.50
2018-07-02T09:34:03.999Z,43.20
2018-07-02T09:39:01.451Z,42.60
2018-07-02T09:41:30.408Z,42.00
2018-07-02T09:44:00.284Z,42.80
2018-07-02T09:46:29.133Z,42.50
2018-07-02T09:48:58.020Z,41.00
2018-07-02T09:51:27.032Z,43.30
2018-07-02T09:53:55.902Z,43.70
2018-07-02T09:56:24.794Z,43.20
2018-07-02T09:58:53.709Z,43.00
2018-07-02T10:01:22.718Z,43.40
2018-07-02T10:03:52.600Z,42.50
2018-07-02T10:06:21.586Z,43.70
2018-07-02T10:08:50.431Z,43.30
2018-07-02T10:11:19.385Z,43.60
2018-07-02T10:13:49.600Z,43.30
2018-07-02T10:16:18.589Z,42.20
2018-07-02T10:18:49.892Z,42.90
2018-07-02T10:21:18.840Z,42.80
2018-07-02T10:23:47.800Z,43.00
2018-07-02T10:26:16.765Z,43.10
2018-07-02T10:28:45.629Z,43.60
2018-07-02T10:31:14.581Z,43.10
2018-07-02T10:33:43.365Z,43.40
2018-07-02T10:36:12.300Z,42.90
2018-07-02T10:41:09.704Z,42.60
2018-07-02T10:43:38.556Z,42.70
2018-07-02T10:48:36.050Z,41.90
2018-07-02T10:51:05.033Z,42.10
2018-07-02T10:53:33.947Z,42.20
2018-07-02T10:56:02.954Z,42.30
2018-07-02T10:58:31.838Z,42.50
2018-07-02T11:01:00.749Z,42.50
2018-07-02T11:03:29.577Z,42.90
2018-07-02T11:05:58.508Z,42.00
2018-07-02T11:08:27.414Z,42.30
2018-07-02T11:10:56.216Z,42.00
2018-07-02T11:13:25.136Z,42.70
2018-07-02T11:18:22.628Z,41.90
2018-07-02T11:23:20.016Z,41.20
2018-07-02T11:25:48.865Z,42.60
2018-07-02T11:30:46.282Z,41.80
2018-07-02T11:33:15.272Z,41.40
2018-07-02T11:35:44.100Z,40.70
2018-07-02T11:38:13.016Z,40.60
2018-07-02T11:43:10.336Z,41.50
2018-07-02T11:45:39.190Z,40.50
2018-07-02T11:48:08.114Z,39.80
2018-07-02T11:50:36.989Z,40.40
2018-07-02T11:53:05.949Z,39.40
2018-07-02T11:55:34.916Z,39.20
2018-07-02T11:58:03.796Z,39.60
2018-07-02T12:00:33.524Z,39.60
2018-07-02T12:03:03.386Z,39.90
2018-07-02T12:05:32.289Z,40.00
2018-07-02T12:08:01.195Z,39.40
2018-07-02T12:10:30.076Z,39.40
2018-07-02T12:12:58.928Z,39.20
2018-07-02T12:15:27.923Z,38.70
2018-07-02T12:17:56.708Z,38.30
2018-07-02T12:22:55.254Z,37.80
2018-07-02T12:25:24.048Z,38.30
2018-07-02T12:27:53.012Z,39.10
2018-07-02T12:30:21.889Z,36.90
2018-07-02T12:32:52.731Z,37.00
2018-07-02T12:35:21.585Z,37.40
2018-07-02T12:37:50.524Z,38.20
2018-07-02T12:40:19.344Z,36.70
2018-07-02T12:42:48.202Z,36.90
2018-07-02T12:45:17.141Z,37.80
2018-07-02T12:47:46.010Z,37.00
2018-07-02T12:50:14.972Z,37.00
2018-07-02T12:52:43.816Z,36.90
2018-07-02T12:55:12.748Z,36.80
2018-07-02T12:57:41.554Z,36.30
2018-07-02T13:00:10.526Z,36.90
2018-07-02T13:02:39.338Z,36.60
2018-07-02T13:05:08.282Z,35.90
2018-07-02T13:07:37.184Z,36.90
2018-07-02T13:12:34.940Z,35.60
2018-07-02T13:15:03.845Z,36.20
2018-07-02T13:17:32.732Z,35.40
2018-07-02T13:20:01.640Z,35.70
2018-07-02T13:22:30.512Z,36.20
2018-07-02T13:24:59.413Z,37.10
2018-07-02T13:27:28.377Z,35.70
2018-07-02T13:29:57.259Z,35.00
2018-07-02T13:32:26.136Z,34.80
2018-07-02T13:34:55.012Z,34.60
2018-07-02T13:37:23.976Z,33.30
2018-07-02T13:39:52.791Z,33.80
2018-07-02T13:42:21.672Z,34.80
2018-07-02T13:44:50.663Z,34.30
2018-07-02T13:47:19.586Z,33.70
2018-07-02T13:49:48.480Z,34.40
2018-07-02T13:52:17.388Z,34.60
2018-07-02T13:54:46.284Z,34.30
2018-07-02T13:57:15.208Z,33.90
2018-07-02T13:59:44.020Z,35.00
2018-07-02T14:02:12.926Z,34.00
2018-07-02T14:04:41.851Z,33.10
2018-07-02T14:07:10.708Z,34.00
2018-07-02T14:09:39.634Z,34.70
2018-07-02T14:12:08.665Z,34.00
2018-07-02T14:14:37.818Z,33.70
2018-07-02T14:17:06.796Z,33.60
2018-07-02T14:19:36.798Z,33.90
2018-07-02T14:22:05.865Z,34.10
2018-07-02T14:24:34.807Z,34.20
2018-07-02T14:27:03.705Z,35.20
2018-07-02T14:29:32.613Z,36.70
2018-07-02T14:32:01.504Z,37.90
2018-07-02T14:34:30.449Z,38.80
2018-07-02T14:36:59.467Z,37.60
2018-07-02T14:39:28.404Z,37.00
2018-07-02T14:41:57.423Z,37.40
2018-07-02T14:44:26.337Z,37.50
2018-07-02T14:46:55.212Z,37.40
2018-07-02T14:49:24.204Z,38.30
2018-07-02T14:51:54.246Z,38.90
2018-07-02T14:54:23.121Z,39.40
2018-07-02T14:56:51.998Z,38.60
2018-07-02T14:59:20.894Z,37.40
2018-07-02T15:01:49.865Z,36.00
2018-07-02T15:04:19.041Z,35.00
2018-07-02T15:06:47.963Z,35.40
2018-07-02T15:09:17.809Z,36.00
2018-07-02T15:11:46.753Z,35.10
2018-07-02T15:14:15.732Z,35.80
2018-07-02T15:16:44.569Z,36.10
2018-07-02T15:19:14.440Z,35.50
2018-07-02T15:21:43.466Z,35.30
2018-07-02T15:24:12.296Z,34.80
2018-07-02T15:26:41.229Z,33.70
2018-07-02T15:29:11.849Z,34.40
2018-07-02T15:31:40.732Z,34.60
2018-07-02T15:34:09.721Z,34.10
2018-07-02T15:36:38.736Z,34.80
2018-07-02T15:39:10.513Z,35.20
2018-07-02T15:41:39.714Z,35.50
2018-07-02T15:44:08.672Z,35.30
2018-07-02T15:46:37.605Z,34.90
2018-07-02T15:49:06.496Z,35.50
2018-07-02T15:51:35.390Z,35.60
2018-07-02T15:54:04.248Z,36.00
2018-07-02T15:56:33.137Z,35.80
2018-07-02T15:59:02.099Z,36.60
2018-07-02T16:03:59.464Z,36.30
2018-07-02T16:06:28.480Z,36.30
2018-07-02T16:08:57.340Z,36.20
2018-07-02T16:11:26.217Z,36.20
2018-07-02T16:13:55.187Z,36.10
2018-07-02T16:16:24.109Z,36.10
2018-07-02T16:18:52.983Z,36.30
2018-07-02T16:21:22.444Z,36.80
2018-07-02T16:23:51.346Z,37.60
2018-07-02T16:26:20.280Z,38.50
2018-07-02T16:28:49.235Z,39.00
2018-07-02T16:31:18.296Z,39.70
2018-07-02T16:33:47.180Z,40.70
2018-07-02T16:38:44.677Z,41.70
2018-07-02T16:41:13.559Z,42.20
2018-07-02T16:43:42.468Z,42.10
2018-07-02T16:46:11.680Z,41.50
2018-07-02T16:48:40.553Z,41.50
2018-07-02T16:51:09.468Z,41.10
2018-07-02T16:53:38.455Z,40.70
2018-07-02T16:56:09.281Z,41.50
2018-07-02T16:58:38.173Z,42.60
2018-07-02T17:01:07.272Z,43.50
2018-07-02T17:03:36.188Z,43.90
2018-07-02T17:06:05.252Z,44.30
2018-07-02T17:08:34.142Z,44.60
2018-07-02T17:11:03.045Z,45.10
2018-07-02T17:13:32.498Z,45.50
2018-07-02T17:18:29.851Z,46.40
2018-07-02T17:20:58.769Z,46.80
2018-07-02T17:25:56.128Z,47.20
2018-07-02T17:28:25.034Z,47.30
2018-07-02T17:30:53.952Z,47.60
2018-07-02T17:33:23.016Z,47.30
2018-07-02T17:40:48.928Z,48.70
2018-07-02T17:43:17.912Z,49.00
2018-07-02T17:45:46.781Z,50.30
2018-07-02T17:48:15.752Z,50.00
2018-07-02T17:50:44.621Z,49.90
2018-07-02T17:53:14.116Z,50.40
2018-07-02T17:55:43.019Z,50.60
2018-07-02T17:58:12.138Z,51.00
2018-07-02T18:00:41.850Z,51.80
2018-07-02T18:03:11.369Z,51.50
2018-07-02T18:05:40.369Z,51.70
2018-07-02T18:08:09.480Z,52.10
2018-07-02T18:10:38.392Z,52.60
2018-07-02T18:13:07.293Z,53.10
2018-07-02T18:15:36.232Z,53.70
2018-07-02T18:18:05.340Z,54.30
2018-07-02T18:20:34.580Z,54.60
2018-07-02T18:23:03.505Z,54.90
2018-07-02T18:25:32.351Z,55.10
2018-07-02T18:28:02.033Z,55.70
2018-07-02T18:30:30.917Z,56.30
2018-07-02T18:32:59.933Z,56.80
2018-07-02T18:35:28.860Z,57.40
2018-07-02T18:37:57.968Z,57.80
2018-07-02T18:40:27.645Z,58.20
2018-07-02T18:42:57.713Z,58.20
2018-07-02T18:47:55.288Z,58.60
2018-07-02T18:50:24.252Z,58.60
2018-07-02T19:00:18.863Z,60.10
2018-07-02T19:02:47.764Z,60.80
2018-07-02T19:05:16.701Z,60.70
2018-07-02T19:07:45.767Z,61.40
2018-07-02T19:10:14.795Z,61.60
2018-07-02T19:12:43.727Z,62.30
2018-07-02T19:15:12.703Z,62.00
2018-07-02T19:17:41.687Z,62.50
2018-07-02T19:20:10.604Z,62.90
2018-07-02T19:22:39.561Z,63.20
2018-07-02T19:25:09.401Z,63.50
2018-07-02T19:27:38.340Z,64.00
2018-07-02T19:32:35.793Z,65.20
2018-07-02T19:35:04.845Z,65.40
2018-07-02T19:37:34.120Z,65.30
2018-07-02T19:40:03.152Z,65.20
2018-07-02T19:42:32.240Z,65.20
2018-07-02T19:45:01.185Z,65.50
2018-07-02T19:47:30.065Z,65.80
2018-07-02T19:52:27.866Z,65.70
2018-07-02T19:54:56.863Z,65.60
2018-07-02T19:57:27.412Z,65.70
2018-07-02T19:59:56.404Z,67.00
2018-07-02T20:02:25.222Z,66.30
2018-07-02T20:04:54.512Z,66.70
2018-07-02T20:07:23.677Z,67.00
2018-07-02T20:09:53.376Z,67.20
2018-07-02T20:12:22.336Z,67.30
2018-07-02T20:14:51.176Z,67.60
2018-07-02T20:17:20.116Z,67.70
2018-07-02T20:19:50.104Z,67.60
2018-07-02T20:22:19.137Z,67.60
2018-07-02T20:24:48.136Z,67.60
2018-07-02T20:29:45.671Z,68.20
2018-07-02T20:32:14.557Z,68.40
2018-07-02T20:34:43.644Z,69.40
2018-07-02T20:37:12.741Z,68.70
2018-07-02T20:39:41.620Z,69.40
2018-07-02T20:42:10.607Z,70.40
2018-07-02T20:44:39.524Z,70.80
2018-07-02T20:47:08.610Z,71.20
2018-07-02T20:49:37.569Z,71.80
2018-07-02T20:54:34.976Z,71.50
2018-07-02T20:57:03.863Z,71.30
2018-07-02T20:59:32.878Z,71.00
2018-07-02T21:02:01.842Z,71.20
2018-07-02T21:04:30.792Z,71.10
2018-07-02T21:06:59.821Z,71.50
2018-07-02T21:09:28.904Z,71.40
2018-07-02T21:11:57.779Z,71.60
2018-07-02T21:16:55.263Z,71.70
2018-07-02T21:19:24.176Z,71.60
2018-07-02T21:21:53.046Z,71.40
2018-07-02T21:24:21.900Z,71.20
2018-07-02T21:26:51.444Z,71.00
2018-07-02T21:29:20.433Z,71.00
2018-07-02T21:31:49.344Z,71.30
2018-07-02T21:34:18.346Z,72.10
2018-07-02T21:36:47.453Z,71.00
2018-07-02T21:39:16.281Z,71.20
2018-07-02T21:41:45.303Z,71.30
2018-07-02T21:44:14.846Z,71.50
2018-07-02T21:46:43.776Z,71.70
2018-07-02T21:51:41.125Z,71.90
2018-07-02T21:54:10.097Z,72.10
2018-07-02T21:56:38.912Z,72.90
2018-07-02T21:59:07.834Z,72.70
2018-07-02T22:04:05.249Z,73.60
2018-07-02T22:06:34.197Z,74.00
2018-07-02T22:09:04.219Z,74.30
2018-07-02T22:11:33.102Z,74.60
2018-07-02T22:16:30.444Z,75.00
2018-07-02T22:18:59.297Z,75.00
2018-07-02T22:21:28.288Z,74.70
2018-07-02T22:23:57.164Z,74.60
2018-07-02T22:26:26.249Z,74.20
2018-07-02T22:28:55.181Z,74.30
2018-07-02T22:31:25.179Z,74.20
2018-07-02T22:33:54.108Z,74.30
2018-07-02T22:36:23.263Z,74.30
2018-07-02T22:38:52.305Z,74.60
2018-07-02T22:41:21.299Z,74.70
2018-07-02T22:43:50.321Z,75.00
2018-07-02T22:46:19.304Z,75.00
2018-07-02T22:48:48.227Z,74.70
2018-07-02T22:51:17.199Z,75.20
2018-07-02T22:56:14.515Z,75.10
2018-07-02T22:58:44.319Z,75.40
2018-07-02T23:01:13.231Z,75.70
2018-07-02T23:03:42.431Z,75.70
2018-07-02T23:06:11.388Z,76.40
2018-07-02T23:08:40.196Z,76.60
2018-07-02T23:11:09.125Z,76.60
2018-07-02T23:13:37.999Z,76.70
2018-07-02T23:16:07.172Z,77.50
2018-07-02T23:18:36.200Z,76.60
2018-07-02T23:21:05.161Z,76.80
2018-07-02T23:23:34.044Z,76.80
2018-07-02T23:26:02.896Z,76.60
2018-07-02T23:28:31.886Z,76.80
2018-07-02T23:33:29.228Z,76.90
2018-07-02T23:35:58.177Z,76.90
2018-07-02T23:38:27.058Z,77.00
2018-07-02T23:40:55.960Z,78.10
2018-07-02T23:43:24.821Z,77.20
2018-07-02T23:48:22.187Z,77.40
2018-07-02T23:50:51.168Z,77.80
2018-07-02T23:53:20.920Z,78.30
2018-07-02T23:55:49.868Z,78.30
2018-07-02T23:58:18.800Z,78.60
